createdAt,value
2023-03-18T00:02:11.783Z,12.60
2023-03-18T00:04:44.208Z,23.20
2023-03-18T00:07:16.710Z,23.90
2023-03-18T00:09:49.048Z,20.50
2023-03-18T00:12:21.912Z,19.10
2023-03-18T00:14:54.556Z,16.90
2023-03-18T00:17:26.927Z,14.50
2023-03-18T00:20:05.847Z,13.50
2023-03-18T00:22:39.149Z,13.00
2023-03-18T00:25:14.609Z,15.50
2023-03-18T00:27:46.876Z,12.60
2023-03-18T00:30:19.764Z,13.80
2023-03-18T00:32:52.384Z,13.40
2023-03-18T00:35:24.982Z,15.10
2023-03-18T00:37:58.650Z,12.70
2023-03-18T00:40:43.356Z,12.70
2023-03-18T00:43:15.907Z,11.70
2023-03-18T00:45:48.888Z,12.50
2023-03-18T00:48:22.562Z,11.40
2023-03-18T00:50:55.246Z,12.40
2023-03-18T00:53:27.632Z,12.30
2023-03-18T00:56:00.518Z,12.30
2023-03-18T00:58:32.871Z,11.20
2023-03-18T01:01:05.872Z,11.30
2023-03-18T01:03:39.486Z,11.10
2023-03-18T01:06:13.259Z,11.80
2023-03-18T01:08:46.287Z,10.90
2023-03-18T01:11:19.579Z,11.10
2023-03-18T01:13:54.230Z,11.60
2023-03-18T01:16:27.039Z,20.10
2023-03-18T01:18:59.971Z,13.00
2023-03-18T01:21:32.210Z,15.30
2023-03-18T01:24:06.186Z,12.10
2023-03-18T01:26:39.060Z,12.70
2023-03-18T01:29:12.722Z,12.40
2023-03-18T01:31:45.575Z,10.30
2023-03-18T01:34:21.734Z,12.70
2023-03-18T01:36:57.674Z,10.30
2023-03-18T01:39:31.336Z,10.30
2023-03-18T01:42:05.310Z,10.70
2023-03-18T01:44:38.551Z,11.20
2023-03-18T01:47:11.965Z,9.80
2023-03-18T01:49:48.883Z,10.40
2023-03-18T01:52:24.507Z,9.90
2023-03-18T01:55:01.102Z,10.40
2023-03-18T01:57:35.909Z,9.30
2023-03-18T02:00:11.104Z,10.40
2023-03-18T02:02:53.030Z,9.50
2023-03-18T02:05:29.756Z,9.70
2023-03-18T02:08:04.854Z,9.60
2023-03-18T02:10:38.627Z,13.90
2023-03-18T02:13:14.444Z,10.50
2023-03-18T02:15:53.464Z,10.60
2023-03-18T02:18:30.069Z,9.70
2023-03-18T02:21:16.019Z,13.20
2023-03-18T02:23:57.910Z,9.90
2023-03-18T02:26:37.381Z,10.10
2023-03-18T02:29:13.418Z,10.30
2023-03-18T02:31:52.229Z,9.40
2023-03-18T02:34:29.710Z,9.80
2023-03-18T02:37:03.089Z,9.90
2023-03-18T02:39:35.820Z,8.20
2023-03-18T02:42:08.806Z,8.90
2023-03-18T02:44:44.794Z,10.00
2023-03-18T02:47:53.864Z,9.50
2023-03-18T02:50:26.368Z,10.20
2023-03-18T02:53:00.020Z,9.10
2023-03-18T02:55:32.544Z,7.70
2023-03-18T02:58:04.864Z,7.20
2023-03-18T03:00:38.573Z,7.90
2023-03-18T03:03:11.233Z,7.90
2023-03-18T03:05:43.733Z,7.50
2023-03-18T03:08:16.634Z,7.40
2023-03-18T03:10:52.555Z,7.40
2023-03-18T03:13:25.760Z,8.00
2023-03-18T03:15:58.862Z,7.50
2023-03-18T03:18:32.676Z,8.70
2023-03-18T03:21:05.220Z,10.50
2023-03-18T03:23:38.343Z,8.40
2023-03-18T03:26:11.837Z,9.30
2023-03-18T03:28:44.469Z,7.50
2023-03-18T03:31:17.505Z,7.90
2023-03-18T03:33:50.088Z,7.90
2023-03-18T03:36:22.375Z,7.60
2023-03-18T03:38:55.621Z,7.80
2023-03-18T03:41:28.374Z,7.10
2023-03-18T03:44:00.615Z,7.50
2023-03-18T03:46:32.922Z,6.70
2023-03-18T03:49:05.627Z,6.10
2023-03-18T03:51:37.999Z,7.00
2023-03-18T03:54:11.791Z,7.70
2023-03-18T03:56:44.438Z,7.10
2023-03-18T03:59:16.870Z,6.50
2023-03-18T04:02:07.879Z,6.80
2023-03-18T04:04:40.164Z,6.20
2023-03-18T04:07:14.470Z,6.40
2023-03-18T04:09:47.394Z,6.20
2023-03-18T04:12:19.910Z,6.60
2023-03-18T04:14:57.096Z,6.40
2023-03-18T04:17:29.471Z,5.90
2023-03-18T04:20:01.771Z,6.50
2023-03-18T04:22:36.320Z,6.90
2023-03-18T04:25:12.182Z,6.30
2023-03-18T04:27:45.149Z,7.10
2023-03-18T04:30:20.368Z,7.30
2023-03-18T04:33:02.071Z,8.10
2023-03-18T04:35:35.513Z,6.90
2023-03-18T04:38:08.752Z,5.70
2023-03-18T04:40:41.232Z,6.70
2023-03-18T04:43:13.631Z,7.80
2023-03-18T04:45:45.854Z,7.70
2023-03-18T04:48:18.335Z,6.50
2023-03-18T04:50:50.839Z,7.60
2023-03-18T04:53:27.658Z,7.80
2023-03-18T04:56:00.374Z,7.10
2023-03-18T04:58:38.853Z,7.20
2023-03-18T05:01:16.975Z,7.60
2023-03-18T05:03:49.470Z,8.20
2023-03-18T05:06:27.006Z,8.10
2023-03-18T05:09:01.762Z,7.50
2023-03-18T05:11:38.253Z,6.60
2023-03-18T05:14:33.042Z,7.50
2023-03-18T05:17:05.747Z,6.60
2023-03-18T05:19:40.073Z,6.20
2023-03-18T05:22:22.954Z,8.70
2023-03-18T05:24:59.290Z,6.50
2023-03-18T05:27:32.428Z,8.50
2023-03-18T05:30:11.117Z,5.80
2023-03-18T05:32:50.020Z,6.90
2023-03-18T05:35:23.197Z,21.50
2023-03-18T05:37:55.945Z,22.70
2023-03-18T05:40:28.978Z,10.60
2023-03-18T05:43:21.925Z,19.70
2023-03-18T05:45:57.493Z,9.10
2023-03-18T05:48:40.110Z,17.70
2023-03-18T05:51:12.766Z,10.00
2023-03-18T05:53:45.504Z,21.80
2023-03-18T05:56:25.828Z,15.40
2023-03-18T05:59:01.803Z,10.60
2023-03-18T06:01:56.488Z,8.20
2023-03-18T06:04:28.836Z,9.10
2023-03-18T06:07:01.399Z,8.60
2023-03-18T06:09:34.454Z,10.60
2023-03-18T06:12:08.504Z,8.10
2023-03-18T06:14:40.854Z,9.20
2023-03-18T06:17:14.155Z,8.30
2023-03-18T06:19:47.000Z,7.00
2023-03-18T06:22:19.419Z,8.00
2023-03-18T06:24:51.711Z,10.60
2023-03-18T06:27:24.709Z,8.20
2023-03-18T06:30:03.061Z,13.00
2023-03-18T06:32:35.920Z,12.50
2023-03-18T06:35:11.821Z,13.50
2023-03-18T06:37:44.405Z,13.90
2023-03-18T06:40:17.631Z,12.00
2023-03-18T06:42:50.364Z,14.20
2023-03-18T06:45:31.965Z,12.60
2023-03-18T06:48:10.445Z,7.60
2023-03-18T06:50:45.799Z,7.80
2023-03-18T06:53:27.592Z,15.40
2023-03-18T06:56:00.306Z,9.50
2023-03-18T06:58:37.922Z,11.10
2023-03-18T07:03:47.008Z,17.40
2023-03-18T07:06:19.969Z,10.50
2023-03-18T07:08:53.175Z,10.10
2023-03-18T07:11:25.662Z,10.90
2023-03-18T07:13:58.756Z,26.40
2023-03-18T07:16:34.180Z,14.20
2023-03-18T07:19:06.475Z,20.10
2023-03-18T07:21:40.137Z,12.50
2023-03-18T07:24:12.674Z,15.10
2023-03-18T07:26:46.463Z,16.30
2023-03-18T07:29:19.013Z,13.00
2023-03-18T07:31:51.479Z,10.90
2023-03-18T07:34:24.308Z,14.40
2023-03-18T07:36:56.728Z,15.50
2023-03-18T07:39:29.127Z,21.90
2023-03-18T07:42:02.217Z,16.00
2023-03-18T07:44:36.167Z,17.50
2023-03-18T07:47:08.994Z,13.20
2023-03-18T07:49:41.754Z,14.70
2023-03-18T07:52:14.032Z,14.40
2023-03-18T07:54:46.458Z,11.90
2023-03-18T07:57:19.088Z,11.40
2023-03-18T07:59:52.021Z,11.80
2023-03-18T08:02:25.539Z,12.90
2023-03-18T08:04:57.946Z,12.40
2023-03-18T08:07:30.844Z,15.80
2023-03-18T08:10:03.428Z,14.90
2023-03-18T08:12:51.598Z,17.00
2023-03-18T08:15:26.156Z,22.60
2023-03-18T08:17:58.539Z,15.80
2023-03-18T08:20:30.764Z,15.20
2023-03-18T08:23:03.634Z,11.20
2023-03-18T08:25:35.969Z,13.50
2023-03-18T08:28:08.767Z,12.40
2023-03-18T08:30:41.462Z,15.90
2023-03-18T08:33:13.834Z,11.80
2023-03-18T08:35:46.496Z,10.50
2023-03-18T08:38:19.398Z,28.90
2023-03-18T08:40:52.116Z,13.70
2023-03-18T08:43:24.418Z,15.10
2023-03-18T08:45:57.816Z,10.30
2023-03-18T08:48:30.837Z,8.90
2023-03-18T08:51:04.065Z,12.10
2023-03-18T08:53:36.912Z,10.60
2023-03-18T08:56:10.075Z,13.00
2023-03-18T08:58:43.894Z,15.60
2023-03-18T09:01:16.816Z,31.00
2023-03-18T09:03:49.165Z,46.90
2023-03-18T09:06:21.489Z,72.50
2023-03-18T09:08:54.242Z,20.70
2023-03-18T09:11:27.007Z,11.10
2023-03-18T09:13:59.324Z,11.20
2023-03-18T09:16:31.692Z,12.10
2023-03-18T09:19:05.045Z,13.10
2023-03-18T09:21:37.718Z,9.70
2023-03-18T09:24:10.651Z,10.90
2023-03-18T09:26:43.882Z,14.50
2023-03-18T09:29:16.593Z,12.40
2023-03-18T09:31:49.279Z,10.60
2023-03-18T09:34:21.637Z,8.60
2023-03-18T09:36:54.146Z,8.70
2023-03-18T09:39:27.350Z,11.20
2023-03-18T09:42:18.094Z,23.90
2023-03-18T09:44:56.712Z,10.30
2023-03-18T09:47:56.360Z,34.70
2023-03-18T09:50:41.759Z,23.80
2023-03-18T09:55:53.967Z,38.20
2023-03-18T09:58:35.174Z,114.40
2023-03-18T10:01:10.851Z,23.50
2023-03-18T10:03:47.857Z,24.40
2023-03-18T10:06:21.975Z,132.60
2023-03-18T10:09:02.810Z,15.90
2023-03-18T10:11:39.063Z,14.30
2023-03-18T10:14:32.004Z,20.30
2023-03-18T10:17:14.543Z,33.00
2023-03-18T10:19:51.950Z,23.90
2023-03-18T10:22:45.074Z,13.80
2023-03-18T10:25:26.594Z,35.30
2023-03-18T10:28:23.455Z,58.60
2023-03-18T10:31:07.284Z,70.80
2023-03-18T10:33:49.296Z,67.70
2023-03-18T10:36:29.525Z,29.70
2023-03-18T10:39:04.057Z,22.20
2023-03-18T10:41:37.960Z,40.40
2023-03-18T10:44:19.253Z,35.20
2023-03-18T10:47:00.582Z,26.10
2023-03-18T10:49:37.106Z,25.20
2023-03-18T10:52:21.429Z,15.30
2023-03-18T10:54:54.318Z,24.90
2023-03-18T10:57:27.207Z,21.90
2023-03-18T10:59:59.853Z,12.80
2023-03-18T11:02:38.888Z,17.40
2023-03-18T11:05:23.465Z,8.70
2023-03-18T11:08:01.444Z,20.40
2023-03-18T11:10:39.774Z,15.90
2023-03-18T11:13:17.818Z,22.00
2023-03-18T11:15:52.785Z,14.50
2023-03-18T11:21:01.418Z,16.40
2023-03-18T11:23:46.679Z,15.30
2023-03-18T11:26:24.338Z,21.00
2023-03-18T11:29:00.405Z,15.10
2023-03-18T11:31:32.871Z,14.40
2023-03-18T11:34:11.067Z,12.70
2023-03-18T11:36:43.501Z,13.60
2023-03-18T11:39:17.243Z,17.50
2023-03-18T11:41:50.474Z,26.80
2023-03-18T11:44:29.824Z,18.90
2023-03-18T11:47:08.748Z,13.40
2023-03-18T11:49:43.070Z,21.40
2023-03-18T11:52:30.089Z,19.90
2023-03-18T11:55:12.994Z,14.00
2023-03-18T11:58:20.817Z,20.20
2023-03-18T12:01:01.481Z,15.10
2023-03-18T12:03:55.056Z,12.60
2023-03-18T12:06:29.396Z,12.50
2023-03-18T12:09:16.346Z,9.70
2023-03-18T12:12:06.970Z,8.00
2023-03-18T12:14:45.932Z,10.00
2023-03-18T12:17:35.786Z,9.80
2023-03-18T12:20:31.530Z,9.30
2023-03-18T12:23:22.154Z,11.90
2023-03-18T12:26:03.328Z,9.90
2023-03-18T12:28:49.140Z,7.00
2023-03-18T12:31:40.855Z,7.60
2023-03-18T12:34:24.965Z,12.20
2023-03-18T12:37:13.215Z,7.80
2023-03-18T12:40:00.641Z,7.30
2023-03-18T12:42:44.835Z,22.40
2023-03-18T12:45:20.728Z,10.90
2023-03-18T12:47:56.336Z,22.30
2023-03-18T12:50:33.600Z,19.00
2023-03-18T12:53:11.248Z,21.10
2023-03-18T12:55:48.059Z,10.40
2023-03-18T12:58:24.482Z,14.10
2023-03-18T13:01:06.996Z,9.10
2023-03-18T13:03:42.016Z,8.10
2023-03-18T13:09:10.032Z,6.50
2023-03-18T13:11:56.954Z,8.40
2023-03-18T13:14:39.436Z,7.30
2023-03-18T13:17:14.776Z,21.40
2023-03-18T13:19:47.675Z,11.80
2023-03-18T13:22:38.348Z,10.00
2023-03-18T13:25:20.216Z,7.90
2023-03-18T13:28:16.357Z,17.30
2023-03-18T13:31:00.800Z,12.50
2023-03-18T13:34:12.180Z,8.30
2023-03-18T13:37:11.022Z,9.20
2023-03-18T13:40:00.672Z,17.00
2023-03-18T13:42:36.159Z,16.30
2023-03-18T13:45:19.947Z,9.30
2023-03-18T13:47:59.461Z,13.10
2023-03-18T13:50:39.817Z,11.30
2023-03-18T13:53:23.509Z,9.60
2023-03-18T13:56:07.088Z,8.60
2023-03-18T13:58:48.103Z,9.10
2023-03-18T14:01:36.392Z,14.40
2023-03-18T14:04:33.622Z,11.50
2023-03-18T14:07:19.667Z,17.10
2023-03-18T14:10:18.778Z,9.40
2023-03-18T14:12:52.428Z,10.50
2023-03-18T14:15:45.626Z,9.50
2023-03-18T14:18:27.873Z,10.70
2023-03-18T14:21:08.282Z,10.60
2023-03-18T14:23:46.515Z,11.70
2023-03-18T14:26:27.629Z,9.70
2023-03-18T14:29:23.628Z,9.20
2023-03-18T14:32:01.134Z,12.90
2023-03-18T14:34:35.179Z,10.30
2023-03-18T14:37:29.515Z,11.40
2023-03-18T14:40:13.934Z,13.60
2023-03-18T14:42:58.455Z,8.80
2023-03-18T14:45:35.054Z,22.60
2023-03-18T14:48:18.593Z,9.10
2023-03-18T14:50:58.073Z,10.40
2023-03-18T14:53:34.690Z,32.20
2023-03-18T14:56:17.948Z,59.40
2023-03-18T14:58:53.539Z,21.50
2023-03-18T15:01:33.044Z,8.50
2023-03-18T15:04:07.120Z,15.60
2023-03-18T15:06:43.069Z,11.40
2023-03-18T15:09:20.960Z,15.50
2023-03-18T15:11:53.972Z,18.90
2023-03-18T15:14:30.298Z,11.90
2023-03-18T15:17:06.548Z,17.80
2023-03-18T15:19:38.851Z,30.70
2023-03-18T15:22:21.167Z,13.90
2023-03-18T15:25:03.383Z,20.20
2023-03-18T15:27:39.080Z,36.00
2023-03-18T15:30:27.794Z,41.10
2023-03-18T15:33:08.279Z,66.90
2023-03-18T15:35:40.573Z,50.80
2023-03-18T15:38:19.509Z,57.50
2023-03-18T15:40:56.627Z,53.60
2023-03-18T15:43:40.282Z,42.80
2023-03-18T15:46:20.462Z,46.40
2023-03-18T15:48:56.004Z,29.70
2023-03-18T15:51:31.319Z,51.20
2023-03-18T15:54:09.498Z,36.70
2023-03-18T15:56:48.765Z,30.30
2023-03-18T15:59:25.955Z,32.20
2023-03-18T16:01:59.502Z,47.50
2023-03-18T16:04:36.368Z,36.40
2023-03-18T16:07:18.922Z,31.70
2023-03-18T16:09:51.798Z,51.20
2023-03-18T16:12:27.759Z,18.70
2023-03-18T16:15:03.353Z,26.10
2023-03-18T16:17:35.813Z,33.90
2023-03-18T16:20:18.148Z,45.40
2023-03-18T16:22:51.037Z,67.10
2023-03-18T16:25:24.159Z,39.00
2023-03-18T16:28:00.143Z,39.50
2023-03-18T16:30:34.158Z,37.90
2023-03-18T16:33:13.123Z,28.90
2023-03-18T16:35:46.834Z,48.50
2023-03-18T16:38:20.490Z,30.50
2023-03-18T16:40:54.862Z,42.10
2023-03-18T16:43:29.547Z,45.20
2023-03-18T16:46:04.356Z,49.90
2023-03-18T16:51:07.967Z,43.60
2023-03-18T16:53:40.402Z,43.20
2023-03-18T16:56:20.811Z,35.70
2023-03-18T16:58:53.217Z,34.30
2023-03-18T17:01:28.157Z,44.10
2023-03-18T17:06:31.911Z,64.10
2023-03-18T17:09:04.893Z,46.80
2023-03-18T17:11:37.393Z,36.80
2023-03-18T17:14:20.978Z,34.00
2023-03-18T17:16:53.312Z,26.60
2023-03-18T17:19:26.564Z,30.90
2023-03-18T17:21:59.159Z,21.20
2023-03-18T17:24:31.496Z,29.80
2023-03-18T17:27:04.440Z,32.80
2023-03-18T17:29:36.901Z,31.90
2023-03-18T17:32:11.679Z,28.20
2023-03-18T17:34:44.352Z,25.10
2023-03-18T17:37:16.744Z,23.10
2023-03-18T17:39:49.770Z,25.40
2023-03-18T17:42:31.029Z,25.70
2023-03-18T17:45:08.529Z,34.40
2023-03-18T17:47:40.882Z,49.20
2023-03-18T17:50:17.350Z,125.80
2023-03-18T17:52:52.823Z,114.10
2023-03-18T17:55:27.366Z,138.60
2023-03-18T17:57:59.925Z,91.10
2023-03-18T18:00:32.961Z,62.00
2023-03-18T18:03:07.413Z,83.40
2023-03-18T18:05:39.778Z,45.40
2023-03-18T18:08:17.821Z,93.70
2023-03-18T18:10:51.028Z,42.70
2023-03-18T18:13:24.461Z,62.10
2023-03-18T18:15:56.918Z,43.90
2023-03-18T18:18:31.493Z,33.90
2023-03-18T18:21:06.832Z,40.00
2023-03-18T18:23:40.282Z,46.10
2023-03-18T18:26:15.978Z,35.50
2023-03-18T18:28:50.383Z,39.70
2023-03-18T18:31:25.624Z,35.30
2023-03-18T18:33:58.692Z,21.80
2023-03-18T18:36:32.559Z,20.80
2023-03-18T18:39:05.576Z,41.60
2023-03-18T18:41:39.555Z,29.30
2023-03-18T18:44:12.770Z,22.70
2023-03-18T18:46:45.282Z,27.30
2023-03-18T18:49:22.967Z,22.70
2023-03-18T18:51:57.200Z,17.10
2023-03-18T18:54:29.784Z,18.90
2023-03-18T18:57:03.176Z,18.50
2023-03-18T18:59:36.371Z,17.80
2023-03-18T19:02:31.035Z,13.60
2023-03-18T19:05:13.245Z,31.60
2023-03-18T19:07:46.635Z,20.60
2023-03-18T19:10:19.970Z,23.00
2023-03-18T19:12:52.675Z,18.70
2023-03-18T19:15:25.250Z,17.70
2023-03-18T19:17:58.319Z,17.50
2023-03-18T19:20:32.356Z,35.90
2023-03-18T19:23:06.511Z,43.20
2023-03-18T19:25:38.855Z,40.20
2023-03-18T19:28:14.438Z,28.00
2023-03-18T19:30:46.788Z,23.90
2023-03-18T19:33:19.905Z,28.20
2023-03-18T19:35:52.538Z,27.80
2023-03-18T19:38:24.874Z,30.40
2023-03-18T19:40:57.720Z,17.00
2023-03-18T19:43:31.116Z,21.30
2023-03-18T19:46:03.525Z,20.20
2023-03-18T19:48:36.001Z,19.70
2023-03-18T19:51:09.521Z,21.50
2023-03-18T19:53:41.901Z,22.50
2023-03-18T19:56:25.769Z,20.00
2023-03-18T19:59:00.221Z,18.30
2023-03-18T20:01:32.750Z,21.20
2023-03-18T20:04:07.930Z,17.50
2023-03-18T20:06:40.214Z,21.30
2023-03-18T20:09:12.954Z,28.30
2023-03-18T20:11:46.026Z,36.30
2023-03-18T20:14:27.305Z,18.70
2023-03-18T20:17:03.231Z,24.00
2023-03-18T20:19:35.619Z,20.60
2023-03-18T20:22:10.437Z,23.50
2023-03-18T20:24:42.885Z,22.50
2023-03-18T20:27:16.029Z,21.70
2023-03-18T20:29:49.723Z,22.70
2023-03-18T20:32:22.556Z,23.10
2023-03-18T20:34:54.814Z,24.00
2023-03-18T20:37:33.924Z,19.70
2023-03-18T20:40:15.671Z,22.40
2023-03-18T20:42:48.293Z,22.70
2023-03-18T20:45:22.249Z,20.20
2023-03-18T20:47:54.794Z,22.00
2023-03-18T20:50:30.917Z,18.70
2023-03-18T20:53:04.566Z,17.30
2023-03-18T20:55:37.303Z,18.70
2023-03-18T20:58:15.163Z,21.50
2023-03-18T21:00:48.235Z,18.30
2023-03-18T21:03:29.512Z,19.60
2023-03-18T21:06:04.036Z,18.80
2023-03-18T21:08:37.256Z,22.50
2023-03-18T21:11:21.167Z,97.30
2023-03-18T21:13:53.766Z,38.20
2023-03-18T21:16:26.515Z,20.00
2023-03-18T21:18:59.632Z,21.00
2023-03-18T21:21:36.053Z,23.50
2023-03-18T21:24:26.064Z,28.00
2023-03-18T21:27:04.760Z,121.60
2023-03-18T21:29:37.769Z,156.70
2023-03-18T21:32:19.255Z,104.80
2023-03-18T21:34:52.747Z,46.80
2023-03-18T21:37:27.320Z,41.60
2023-03-18T21:39:59.806Z,32.40
2023-03-18T21:42:34.151Z,27.80
2023-03-18T21:45:11.379Z,30.50
2023-03-18T21:47:44.250Z,25.90
2023-03-18T21:50:24.521Z,65.50
2023-03-18T21:52:59.207Z,48.00
2023-03-18T21:55:31.979Z,43.90
2023-03-18T21:58:04.803Z,37.00
2023-03-18T22:00:37.110Z,44.60
2023-03-18T22:03:15.827Z,104.10
2023-03-18T22:05:50.209Z,74.90
2023-03-18T22:08:23.422Z,40.60
2023-03-18T22:10:56.932Z,46.60
2023-03-18T22:13:29.870Z,40.00
2023-03-18T22:16:02.323Z,35.70
2023-03-18T22:18:34.644Z,40.70
2023-03-18T22:21:13.184Z,39.80
2023-03-18T22:23:45.863Z,29.20
2023-03-18T22:26:20.119Z,38.60
2023-03-18T22:28:52.846Z,36.90
2023-03-18T22:31:27.414Z,31.60
2023-03-18T22:34:02.214Z,29.30
2023-03-18T22:36:34.506Z,40.20
2023-03-18T22:39:06.847Z,33.50
2023-03-18T22:41:40.335Z,29.00
2023-03-18T22:44:23.870Z,30.80
2023-03-18T22:46:56.511Z,36.20
2023-03-18T22:49:28.910Z,35.30
2023-03-18T22:52:01.284Z,39.20
2023-03-18T22:54:33.983Z,34.40
2023-03-18T22:57:09.065Z,32.60
2023-03-18T23:02:18.646Z,34.20
2023-03-18T23:04:53.182Z,32.90
2023-03-18T23:07:31.319Z,31.10
2023-03-18T23:10:05.593Z,31.20
2023-03-18T23:12:37.909Z,35.50
2023-03-18T23:15:18.192Z,34.90
2023-03-18T23:17:50.654Z,40.50
2023-03-18T23:20:23.005Z,35.80
2023-03-18T23:22:55.264Z,36.50
2023-03-18T23:25:27.813Z,33.10
2023-03-18T23:28:00.153Z,32.20
2023-03-18T23:30:33.003Z,34.30
2023-03-18T23:33:05.613Z,31.20
2023-03-18T23:35:38.599Z,25.40
2023-03-18T23:38:11.106Z,25.50
2023-03-18T23:40:43.494Z,25.50
2023-03-18T23:43:16.248Z,29.40
2023-03-18T23:45:48.660Z,25.90
2023-03-18T23:48:21.116Z,28.70
2023-03-18T23:50:53.876Z,27.20
2023-03-18T23:53:26.283Z,27.40
2023-03-18T23:55:58.618Z,24.60
2023-03-18T23:58:31.011Z,23.20
